Latest Coastal Weather Observations for Truscott

IDD60701

Issued at 8:11 pm CST Thursday 13 June 2024 (issued every 10 minutes, with the page automatically refreshed every 10 minutes)

About coastal observations | Map of coastal stations | Coastal observations for NT | Marine services | Other Formats
Station Details ID: 001020 Name: TRUSCOTT Lat: -14.09 Lon: 126.39 Height: 51.0 m
Data from the previous 72 hours. | See also: Recent months at Truscott
Date/Time
CST
Wind Sea
Height
m
Swell Vis
km
Cloud Weather Temp
°C
Press
MSL
hPa
Rain since
9am
mm
Dir  Spd
kts
Gust
kts
Height
m
Period
s
Dir
13/08:00pm ENE 5 6 - - - - 10 Clear - 24.5 1012.9 0.0
13/07:30pm NE 5 8 - - - - 10 - - 24.9 1012.5 0.0
13/07:00pm NE 4 6 - - - - 10 - - 25.5 1012.3 0.0
13/06:30pm NNE 4 7 - - - - 10 - - 27.0 1011.9 0.0
13/06:00pm NE 7 11 - - - - 10 - - 28.5 1011.7 0.0
13/05:30pm NE 6 11 - - - - 10 - - 29.6 1011.4 0.0
13/05:00pm NE 8 12 - - - - 10 - - 30.2 1011.1 0.0
13/04:30pm NE 5 10 - - - - 10 - - 30.6 1011.0 0.0
13/04:00pm N 7 12 - - - - 10 - - 29.1 1011.0 0.0
13/03:30pm N 7 10 - - - - 10 - - 29.7 1011.3 0.0
13/03:00pm N 7 13 - - - - 10 - - 29.9 1011.6 0.0
13/02:30pm NE 8 12 - - - - 10 - - 30.8 1012.0 0.0
13/02:00pm ENE 7 14 - - - - 10 - - 30.5 1012.5 0.0
13/01:30pm E 7 11 - - - - 10 - - 30.2 1013.0 0.0
13/01:00pm ENE 7 11 - - - - 10 - - 29.9 1013.6 0.0
13/12:30pm ENE 8 12 - - - - 10 - - 29.2 1014.3 0.0
13/12:00pm ENE 7 11 - - - - 10 - - 28.4 1014.7 0.0
13/11:30am E 6 9 - - - - 10 - - 27.9 1015.1 0.0
13/11:00am ENE 8 11 - - - - 10 - - 27.2 1015.4 0.0
13/10:30am E 5 8 - - - - 10 - - 27.5 1015.7 0.0
13/10:00am SE 4 5 - - - - 10 - - 26.3 1015.7 0.0
13/09:30am SSE 3 4 - - - - 10 - - 25.1 1015.5 0.0
13/09:00am ESE 2 4 - - - - 10 - - 23.9 1015.2 0.0
13/08:30am SSE 3 4 - - - - 10 - - 21.5 1015.0 0.0
13/08:00am SSE 4 5 - - - - 10 - - 19.8 1014.7 0.0
13/07:30am S 4 5 - - - - 10 - - 20.1 1014.4 0.0
13/07:00am S 7 9 - - - - 10 - - 21.5 1014.2 0.0
13/06:30am SSW 8 9 - - - - 10 - - 21.6 1014.0 0.0
13/06:00am SSW 7 10 - - - - 10 - - 21.6 1013.8 0.0
13/05:30am SSW 6 8 - - - - 10 - - 21.5 1013.6 0.0
13/05:00am SSW 6 8 - - - - 10 - - 21.5 1013.6 0.0
13/04:30am SSW 3 5 - - - - 10 - - 19.2 1013.5 0.0
13/04:00am SSW 4 6 - - - - 10 - - 20.0 1013.7 0.0
13/03:30am SSW 5 7 - - - - 10 - - 21.4 1013.8 0.0
13/03:00am SSW 5 7 - - - - 10 - - 21.5 1014.2 0.0
13/02:30am SSW 6 8 - - - - 10 - - 21.5 1014.7 0.0
13/02:00am SSW 5 7 - - - - 10 - - 21.4 1015.0 0.0
13/01:30am S 7 8 - - - - 10 - - 21.8 1015.2 0.0
13/01:00am S 5 7 - - - - 10 - - 21.7 1015.5 0.0
13/12:30am SSW 5 7 - - - - 10 - - 20.8 1015.8 0.0
13/12:00am S 4 5 - - - - 10 - - 18.7 1015.9 0.0
 
Date/Time
CST
Wind Sea
Height
m
Swell Vis
km
Cloud Weather Temp
°C
Press
MSL
hPa
Rain since
9am
mm
Dir  Spd
kts
Gust
kts
Height
m
Period
s
Dir
12/11:30pm S 1 5 - - - - 10 - - 18.4 1016.1 0.0
12/11:00pm S 3 4 - - - - 10 - - 19.1 1016.4 0.0
12/10:30pm SSE 4 5 - - - - 10 - - 20.1 1016.3 0.0
12/10:00pm SSE 4 5 - - - - 10 - - 20.5 1016.3 0.0
12/09:30pm SSE 4 5 - - - - 10 - - 21.1 1016.1 0.0
12/09:00pm ESE 4 5 - - - - 10 - - 21.2 1015.7 0.0
12/08:30pm E 4 5 - - - - 10 - - 21.6 1015.4 0.0
12/08:00pm NNE 4 5 - - - - 10 - - 20.7 1015.1 0.0
12/07:30pm NNE 3 3 - - - - 10 - - 21.7 1014.8 0.0
12/07:00pm NNE 4 5 - - - - 10 - - 23.1 1014.4 0.0
12/06:30pm NNE 4 6 - - - - 10 - - 25.5 1014.2 0.0
12/06:00pm N 5 9 - - - - 10 - - 27.2 1013.9 0.0
12/05:30pm NNE 7 10 - - - - 10 - - 27.8 1013.6 0.0
12/05:00pm NNE 7 11 - - - - 10 - - 28.6 1013.6 0.0
12/04:30pm N 7 12 - - - - 10 - - 29.0 1013.5 0.0
12/04:00pm ENE 5 8 - - - - 10 - - 31.4 1013.3 0.0
12/03:30pm E 7 10 - - - - 10 - - 31.4 1013.4 0.0
12/03:00pm ENE 7 12 - - - - 10 - - 31.2 1013.6 0.0
12/02:30pm ENE 7 11 - - - - 10 - - 31.0 1013.9 0.0
12/02:00pm E 7 11 - - - - 10 - - 30.9 1014.3 0.0
12/01:30pm E 8 14 - - - - 10 - - 30.9 1014.9 0.0
12/01:00pm E 7 13 - - - - 10 - - 30.6 1015.4 0.0
12/12:30pm E 7 11 - - - - 10 - - 29.8 1015.9 0.0
12/12:00pm SE 7 11 - - - - 10 - - 29.6 1016.2 0.0
12/11:30am SE 6 11 - - - - 10 - - 28.9 1016.7 0.0
12/11:00am SE 6 11 - - - - 10 - - 28.3 1017.1 0.0
12/10:30am S 6 9 - - - - 10 - - 27.0 1017.5 0.0
12/10:00am S 6 8 - - - - 10 - - 25.3 1017.4 0.0
12/09:30am SSW 5 7 - - - - 10 - - 24.0 1017.5 0.0
12/09:00am SSW 4 5 - - - - 10 - - 22.4 1017.4 0.0
12/08:30am SW 4 5 - - - - 10 - - 20.6 1017.0 0.0
12/08:00am SSW 5 6 - - - - 10 - - 20.0 1016.5 0.0
12/07:30am SSW 4 5 - - - - 10 - - 18.3 1016.3 0.0
12/07:00am SSW 6 7 - - - - 10 - - 20.0 1016.1 0.0
12/06:30am S 6 8 - - - - 10 - - 20.1 1016.0 0.0
12/06:00am SSW 4 5 - - - - 10 - - 18.8 1015.8 0.0
12/05:30am SSW 4 5 - - - - 10 - - 18.2 1015.6 0.0
12/05:00am SSW 3 4 - - - - 10 - - 18.6 1015.5 0.0
12/04:30am SSW 3 4 - - - - 10 - - 18.8 1015.6 0.0
12/04:00am SSW 4 5 - - - - 10 - - 18.8 1015.7 0.0
12/03:30am SSW 3 4 - - - - 10 - - 18.9 1015.9 0.0
12/03:00am SSW 4 5 - - - - 10 - - 19.3 1016.0 0.0
12/02:30am S 4 4 - - - - 10 - - 18.4 1016.3 0.0
12/02:00am SSE 3 3 - - - - 10 - - 18.7 1016.4 0.0
12/01:30am CALM 0 0 - - - - 10 - - 18.9 1016.6 0.0
12/01:00am SSW 3 4 - - - - 10 - - 19.8 1017.0 0.0
12/12:30am SSE 4 5 - - - - 10 - - 20.4 1017.0 0.0
12/12:00am SE 4 5 - - - - 10 - - 19.7 1017.1 0.0
 
Date/Time
CST
Wind Sea
Height
m
Swell Vis
km
Cloud Weather Temp
°C
Press
MSL
hPa
Rain since
9am
mm
Dir  Spd
kts
Gust
kts
Height
m
Period
s
Dir
11/11:30pm E 4 5 - - - - 10 - - 20.5 1017.0 0.0
11/11:00pm E 4 6 - - - - 10 - - 20.8 1017.2 0.0
11/10:30pm E 3 4 - - - - 10 - - 20.9 1017.2 0.0
11/10:00pm ENE 4 5 - - - - 10 - - 21.8 1017.2 0.0
11/09:30pm NE 5 7 - - - - 10 - - 22.6 1016.9 0.0
11/09:00pm NE 5 6 - - - - 10 - - 22.9 1016.7 0.0
11/08:30pm NE 5 6 - - - - 10 - - 23.2 1016.3 0.0
11/08:00pm NE 5 7 - - - - 10 - - 23.4 1015.9 0.0
11/07:30pm NNE 4 7 - - - - 10 - - 24.1 1015.3 0.0
11/07:00pm NNE 5 8 - - - - 10 - - 24.7 1014.8 0.0
11/06:30pm NNE 6 9 - - - - 10 - - 25.5 1014.5 0.0
11/06:00pm NNE 5 8 - - - - 10 - - 26.6 1014.1 0.0
11/05:30pm NNW 7 10 - - - - 10 - - 26.8 1014.1 0.0
11/05:00pm N 7 11 - - - - 10 - - 27.2 1014.0 0.0
11/04:30pm N 8 13 - - - - 10 - - 27.8 1013.8 0.0
11/04:00pm NNW 9 14 - - - - 10 - - 27.9 1013.8 0.0
11/03:30pm ENE 6 12 - - - - 10 - - 30.0 1014.2 0.0
11/03:00pm E 7 11 - - - - 10 - - 29.6 1014.5 0.0
11/02:30pm E 7 10 - - - - 10 - - 29.2 1015.0 0.0
11/02:00pm E 7 13 - - - - 10 - - 28.8 1015.5 0.0
11/01:30pm ENE 7 11 - - - - 10 - - 28.6 1016.0 0.0
11/01:00pm E 9 13 - - - - 10 - - 28.3 1016.5 0.0
11/12:30pm ENE 8 12 - - - - 10 - - 27.8 1016.9 0.0
11/12:00pm E 7 11 - - - - 10 - - 27.2 1017.2 0.0
11/11:30am E 7 11 - - - - 10 - - 26.5 1017.7 0.0
11/11:00am ENE 6 9 - - - - 10 - - 26.1 1017.9 0.0
11/10:30am E 7 11 - - - - 10 - - 25.3 1017.9 0.0
11/10:00am E 4 6 - - - - 10 - - 24.9 1018.0 0.0
11/09:30am SE 3 5 - - - - 10 - - 23.7 1017.9 0.0
11/09:00am SSW 3 3 - - - - 10 - - 21.1 1017.4 0.0
11/08:30am SW 3 4 - - - - 10 - - 19.2 1017.2 0.0
11/08:00am WSW 4 4 - - - - 10 - - 16.9 1016.9 0.0
11/07:30am ESE 3 3 - - - - 10 - - 15.6 1016.5 0.0
11/07:00am E 3 4 - - - - 10 - - 15.3 1016.2 0.0
11/06:30am ESE 4 5 - - - - 10 - - 16.1 1015.9 0.0
11/06:00am ESE 4 6 - - - - 10 - - 16.4 1015.8 0.0
11/05:30am ESE 4 5 - - - - 10 - - 16.0 1015.6 0.0
11/05:00am ESE 3 4 - - - - 10 - - 16.1 1015.4 0.0
11/04:30am SE 3 4 - - - - 10 - - 16.2 1015.4 0.0
11/04:00am SE 3 4 - - - - 10 - - 16.5 1015.2 0.0
11/03:30am SE 4 6 - - - - 10 - - 17.4 1015.1 0.0
11/03:00am SSE 4 6 - - - - 10 - - 17.9 1015.3 0.0
11/02:30am SSE 5 6 - - - - 10 - - 18.7 1015.3 0.0
11/02:00am SSE 5 6 - - - - 10 - - 18.7 1015.7 0.0
11/01:30am SSE 4 5 - - - - 10 - - 18.2 1015.9 0.0
11/01:00am SE 4 6 - - - - 10 - - 18.8 1015.9 0.0
11/12:30am SE 4 6 - - - - 10 - - 18.5 1016.0 0.0
11/12:00am SE 4 6 - - - - 10 - - 19.2 1016.1 0.0
 
Date/Time
CST
Wind Sea
Height
m
Swell Vis
km
Cloud Weather Temp
°C
Press
MSL
hPa
Rain since
9am
mm
Dir  Spd
kts
Gust
kts
Height
m
Period
s
Dir
10/11:30pm SE 4 5 - - - - 10 - - 17.8 1016.4 0.0
10/11:00pm E 3 4 - - - - 10 - - 17.6 1016.5 0.0
10/10:30pm E 4 5 - - - - 10 - - 17.6 1016.6 0.0
10/10:00pm E 3 5 - - - - 10 - - 18.8 1016.3 0.0
10/09:30pm ENE 4 6 - - - - 10 - - 19.1 1016.2 0.0
10/09:00pm ENE 3 4 - - - - 10 - - 19.3 1015.9 0.0
10/08:30pm NNE 3 4 - - - - 10 - - 19.6 1015.7 0.0

Other formats

Comma delimited format used in spreadsheet applications
http://www.bom.gov.au/fwo/IDD60701/IDD60701.95101.axf

JavaScript Object Notation format (JSON) in row-major order
http://www.bom.gov.au/fwo/IDD60701/IDD60701.95101.json

Data quality

Most of these data are generated automatically and are frequently updated. Quality checks on data are not normally performed. It is possible for incorrect values to appear. Refer to information at About Latest Weather Observations and please check the disclaimer before using these data.